Time;durP1;ratioP1;P1;durP2;ratioP2;P2;SDS_P1;SDS_P2;PMS_P1;PMS_P2;Temp;Humidity;BMP_temperature;BMP_pressure;BME280_temperature;BME280_humidity;BME280_pressure;Samples;Min_cycle;Max_cycle;Signal;HPM_P1;HPM_P2
2022/06/11 00:00:01;;;;;;;;;;;18.00;50.80;;;;;;4097630;28;20684;-43
2022/06/11 00:02:05;;;;;;;;;;;17.90;49.80;;;;;;4095469;28;20979;-43
2022/06/11 00:04:08;;;;;;;;;;;17.80;49.90;;;;;;4103069;28;19960;-42
2022/06/11 00:06:10;;;;;;;;;;;17.70;49.80;;;;;;4109978;28;19964;-48
2022/06/11 00:08:12;;;;;;;;;;;17.60;50.10;;;;;;4107151;28;19988;-45
2022/06/11 00:10:14;;;;;;;;;;;17.50;50.70;;;;;;4111517;28;19971;-43
2022/06/11 00:12:17;;;;;;;;;;;17.50;51.50;;;;;;4114383;28;20022;-43
2022/06/11 00:14:23;;;;;;;;;;;17.40;51.80;;;;;;4104650;28;20337;-42
2022/06/11 00:16:25;;;;;;;;;;;17.40;52.10;;;;;;4104256;28;20656;-43
2022/06/11 00:18:28;;;;;;;;;;;17.30;52.30;;;;;;4107165;28;20520;-45
2022/06/11 00:20:30;;;;;;;;;;;17.30;52.50;;;;;;4110681;28;20493;-46
2022/06/11 00:22:32;;;;;;;;;;;17.30;52.80;;;;;;4103216;28;20192;-45
2022/06/11 00:24:34;;;;;;;;;;;17.20;53.20;;;;;;4103680;28;20487;-44
2022/06/11 00:26:36;;;;;;;;;;;17.20;53.50;;;;;;4094581;28;19929;-44
2022/06/11 00:28:37;;;;;;;;;;;17.20;54.30;;;;;;4104959;28;20063;-45
2022/06/11 00:30:40;;;;;;;;;;;17.20;53.60;;;;;;4103325;28;20274;-44
2022/06/11 00:32:42;;;;;;;;;;;17.20;53.60;;;;;;4114874;28;19929;-44
2022/06/11 00:34:43;;;;;;;;;;;17.20;53.80;;;;;;4087928;28;20825;-44
2022/06/11 00:36:46;;;;;;;;;;;17.10;53.50;;;;;;4108459;28;19931;-46
2022/06/11 00:38:48;;;;;;;;;;;17.10;53.70;;;;;;4113023;28;19929;-42
2022/06/11 00:40:53;;;;;;;;;;;17.10;53.80;;;;;;4094911;28;19934;-49
2022/06/11 00:42:55;;;;;;;;;;;17.10;54.10;;;;;;4106760;28;19925;-46
2022/06/11 00:45:12;;;;;;;;;;;17.10;54.20;;;;;;4087439;28;19975;-39
2022/06/11 00:47:16;;;;;;;;;;;17.10;54.30;;;;;;4107108;28;19933;-42
2022/06/11 00:49:21;;;;;;;;;;;17.10;54.80;;;;;;4108143;28;19986;-40
2022/06/11 00:51:24;;;;;;;;;;;17.10;54.00;;;;;;4116509;28;20323;-42
2022/06/11 00:53:37;;;;;;;;;;;17.00;53.60;;;;;;4088659;28;20833;-42
2022/06/11 00:55:39;;;;;;;;;;;17.00;53.30;;;;;;4091173;28;20138;-41
2022/06/11 00:57:47;;;;;;;;;;;17.00;53.10;;;;;;4108756;28;19995;-43
2022/06/11 00:59:51;;;;;;;;;;;16.90;52.90;;;;;;4105731;28;20019;-44
2022/06/11 01:01:52;;;;;;;;;;;16.90;52.80;;;;;;4115014;28;19976;-43
2022/06/11 01:03:56;;;;;;;;;;;16.90;52.60;;;;;;4108924;28;20850;-40
2022/06/11 01:06:00;;;;;;;;;;;16.80;52.40;;;;;;4089807;28;19925;-41
2022/06/11 01:08:17;;;;;;;;;;;16.80;52.40;;;;;;4110316;28;19929;-41
2022/06/11 01:10:37;;;;;;;;;;;16.80;52.40;;;;;;4107022;28;19929;-42
2022/06/11 01:12:57;;;;;;;;;;;16.80;52.40;;;;;;4105731;28;19959;-41
2022/06/11 01:14:59;;;;;;;;;;;16.70;52.30;;;;;;4115340;28;20978;-44
2022/06/11 01:17:19;;;;;;;;;;;16.70;52.20;;;;;;4105918;28;19986;-40
2022/06/11 01:19:38;;;;;;;;;;;16.70;52.20;;;;;;4111444;28;20694;-40
2022/06/11 01:22:05;;;;;;;;;;;16.70;52.30;;;;;;4115489;28;19964;-43
2022/06/11 01:24:16;;;;;;;;;;;16.60;52.10;;;;;;4106849;28;19929;-42
2022/06/11 01:26:17;;;;;;;;;;;16.60;52.20;;;;;;4107120;28;19979;-43
2022/06/11 01:28:31;;;;;;;;;;;16.60;52.10;;;;;;4114428;28;19982;-40
2022/06/11 01:30:52;;;;;;;;;;;16.60;52.10;;;;;;4113320;28;20567;-39
2022/06/11 01:33:12;;;;;;;;;;;16.50;52.10;;;;;;4105014;28;20132;-40
2022/06/11 01:35:19;;;;;;;;;;;16.50;52.10;;;;;;4096973;28;20326;-47
2022/06/11 01:37:24;;;;;;;;;;;16.50;52.10;;;;;;4107570;28;19929;-42
2022/06/11 01:39:34;;;;;;;;;;;16.50;52.10;;;;;;4090766;28;20038;-41
2022/06/11 01:41:39;;;;;;;;;;;16.50;52.10;;;;;;4102721;28;19932;-39
2022/06/11 01:43:43;;;;;;;;;;;16.50;52.10;;;;;;4113671;28;19980;-42
2022/06/11 01:45:46;;;;;;;;;;;16.40;52.00;;;;;;4108199;28;19928;-40
2022/06/11 01:47:49;;;;;;;;;;;16.40;52.10;;;;;;4106451;28;19932;-42
2022/06/11 01:49:50;;;;;;;;;;;16.40;52.00;;;;;;4107289;28;19925;-41
2022/06/11 01:51:55;;;;;;;;;;;16.40;52.10;;;;;;4110991;28;20034;-40
2022/06/11 01:54:15;;;;;;;;;;;16.40;52.00;;;;;;4102553;28;20023;-45
2022/06/11 01:56:19;;;;;;;;;;;16.40;52.00;;;;;;4109861;28;19928;-45
2022/06/11 01:58:44;;;;;;;;;;;16.40;52.00;;;;;;4100488;28;19925;-42
2022/06/11 02:01:06;;;;;;;;;;;16.40;52.00;;;;;;4111488;28;20444;-43
2022/06/11 02:03:17;;;;;;;;;;;16.40;52.10;;;;;;4102234;28;20031;-41
2022/06/11 02:05:19;;;;;;;;;;;16.40;52.10;;;;;;4102919;28;19928;-41
2022/06/11 02:07:23;;;;;;;;;;;16.30;52.00;;;;;;4124113;28;20463;-41
2022/06/11 02:09:43;;;;;;;;;;;16.30;52.00;;;;;;4096673;28;21127;-40
2022/06/11 02:11:46;;;;;;;;;;;16.30;51.90;;;;;;4130274;28;19936;-41
2022/06/11 02:13:53;;;;;;;;;;;16.30;51.90;;;;;;4121551;28;20914;-39
2022/06/11 02:16:14;;;;;;;;;;;16.30;51.90;;;;;;4121485;28;19971;-38
2022/06/11 02:18:18;;;;;;;;;;;16.30;51.90;;;;;;4130219;28;20813;-40
2022/06/11 02:20:24;;;;;;;;;;;16.30;51.90;;;;;;4125996;28;20015;-40
2022/06/11 02:22:29;;;;;;;;;;;16.30;51.80;;;;;;4099942;28;19933;-41
2022/06/11 02:24:36;;;;;;;;;;;16.30;51.90;;;;;;4128815;28;20000;-44
2022/06/11 02:26:39;;;;;;;;;;;16.30;51.90;;;;;;4132996;28;19936;-41
2022/06/11 02:28:42;;;;;;;;;;;16.30;51.90;;;;;;4125399;28;19932;-43
2022/06/11 02:30:46;;;;;;;;;;;16.30;51.80;;;;;;4124962;28;19929;-40
2022/06/11 02:32:47;;;;;;;;;;;16.30;51.90;;;;;;4127545;28;19924;-40
2022/06/11 02:34:51;;;;;;;;;;;16.30;51.80;;;;;;4129165;28;20447;-43
2022/06/11 02:37:05;;;;;;;;;;;16.30;51.90;;;;;;4125094;28;20413;-41
2022/06/11 02:39:06;;;;;;;;;;;16.30;51.80;;;;;;4123651;28;19933;-44
2022/06/11 02:41:14;;;;;;;;;;;16.30;51.80;;;;;;4123543;28;20425;-42
2022/06/11 02:43:15;;;;;;;;;;;16.30;51.90;;;;;;4126712;28;19939;-42
2022/06/11 02:45:17;;;;;;;;;;;16.30;51.80;;;;;;4132229;28;21532;-40
2022/06/11 02:47:19;;;;;;;;;;;16.30;51.80;;;;;;4123912;28;19935;-43
2022/06/11 02:49:21;;;;;;;;;;;16.30;51.80;;;;;;4125878;28;20307;-41
2022/06/11 02:51:24;;;;;;;;;;;16.30;51.70;;;;;;4130473;28;20372;-42
2022/06/11 02:53:26;;;;;;;;;;;16.30;51.70;;;;;;4123351;28;19935;-46
2022/06/11 02:55:31;;;;;;;;;;;16.30;51.70;;;;;;4125204;28;20284;-44
2022/06/11 02:57:33;;;;;;;;;;;16.30;51.70;;;;;;4130188;28;20002;-40
2022/06/11 02:59:34;;;;;;;;;;;16.30;51.70;;;;;;4129115;28;21477;-44
2022/06/11 03:01:36;;;;;;;;;;;16.30;51.70;;;;;;4122409;28;19929;-43
2022/06/11 03:03:38;;;;;;;;;;;16.30;51.70;;;;;;4126322;28;19925;-43
2022/06/11 03:05:40;;;;;;;;;;;16.30;51.70;;;;;;4132009;28;20595;-41
2022/06/11 03:07:41;;;;;;;;;;;16.30;51.70;;;;;;4099835;28;20426;-44
2022/06/11 03:09:43;;;;;;;;;;;16.30;51.70;;;;;;4103968;28;19932;-41
2022/06/11 03:11:45;;;;;;;;;;;16.30;51.70;;;;;;4109301;28;20130;-48
2022/06/11 03:13:47;;;;;;;;;;;16.30;51.70;;;;;;4101709;28;19925;-40
2022/06/11 03:15:49;;;;;;;;;;;16.40;51.60;;;;;;4101970;28;19965;-42
2022/06/11 03:17:52;;;;;;;;;;;16.40;51.60;;;;;;4089107;28;20020;-42
2022/06/11 03:19:54;;;;;;;;;;;16.40;51.60;;;;;;4100131;28;19962;-48
2022/06/11 03:21:55;;;;;;;;;;;16.40;51.60;;;;;;4098839;28;19929;-45
2022/06/11 03:23:57;;;;;;;;;;;16.40;51.50;;;;;;4108388;28;19930;-43
2022/06/11 03:25:59;;;;;;;;;;;16.40;51.50;;;;;;4102044;28;20569;-41
2022/06/11 03:28:08;;;;;;;;;;;16.50;51.50;;;;;;4100680;28;19929;-45
2022/06/11 03:30:10;;;;;;;;;;;16.50;51.40;;;;;;4100886;28;20505;-42
2022/06/11 03:32:12;;;;;;;;;;;16.50;51.40;;;;;;4111131;28;20027;-45
2022/06/11 03:34:14;;;;;;;;;;;16.50;51.40;;;;;;4084198;28;20065;-45
2022/06/11 03:36:18;;;;;;;;;;;16.60;51.40;;;;;;4079292;28;19952;-42
2022/06/11 03:38:20;;;;;;;;;;;16.60;51.30;;;;;;4105359;28;19925;-46
2022/06/11 03:40:21;;;;;;;;;;;16.60;51.30;;;;;;4108261;28;19929;-44
2022/06/11 03:42:23;;;;;;;;;;;16.60;51.30;;;;;;4101064;28;20207;-40
2022/06/11 03:44:24;;;;;;;;;;;16.70;51.30;;;;;;4103195;28;19952;-44
2022/06/11 03:46:28;;;;;;;;;;;16.70;51.20;;;;;;4106619;28;19940;-43
2022/06/11 03:48:30;;;;;;;;;;;16.70;51.20;;;;;;4098264;28;19984;-47
2022/06/11 03:50:33;;;;;;;;;;;16.70;51.10;;;;;;4100084;28;19925;-44
2022/06/11 03:52:35;;;;;;;;;;;16.80;51.20;;;;;;4108510;28;20419;-43
2022/06/11 03:54:37;;;;;;;;;;;16.80;51.10;;;;;;4103028;28;21129;-47
2022/06/11 03:56:39;;;;;;;;;;;16.80;51.10;;;;;;4098055;28;19939;-42
2022/06/11 03:58:42;;;;;;;;;;;16.90;51.00;;;;;;4085206;28;20075;-45
2022/06/11 04:03:04;;;;;;;;;;;17.00;50.90;;;;;;4104755;28;20470;-41
2022/06/11 04:05:06;;;;;;;;;;;17.00;51.20;;;;;;4103204;28;19929;-44
2022/06/11 04:07:08;;;;;;;;;;;17.10;50.70;;;;;;4095079;28;19955;-45
2022/06/11 04:09:11;;;;;;;;;;;17.10;50.60;;;;;;4110864;28;20436;-42
2022/06/11 04:11:13;;;;;;;;;;;17.10;50.60;;;;;;4103453;28;19972;-42
2022/06/11 04:13:15;;;;;;;;;;;17.10;50.60;;;;;;4097620;28;19925;-47
2022/06/11 04:15:16;;;;;;;;;;;17.20;50.70;;;;;;4107711;28;20371;-41
2022/06/11 04:17:32;;;;;;;;;;;17.20;50.70;;;;;;4115101;28;20224;-41
2022/06/11 04:19:37;;;;;;;;;;;17.20;50.70;;;;;;4116353;28;20242;-41
2022/06/11 04:21:39;;;;;;;;;;;17.30;50.70;;;;;;4115995;28;20898;-44
2022/06/11 04:23:42;;;;;;;;;;;17.30;50.60;;;;;;4116614;28;20024;-45
2022/06/11 04:25:45;;;;;;;;;;;17.30;50.50;;;;;;4110884;28;20337;-45
2022/06/11 04:27:46;;;;;;;;;;;17.30;50.50;;;;;;4114838;28;19932;-48
2022/06/11 04:29:53;;;;;;;;;;;17.30;50.30;;;;;;4109161;28;20568;-45
2022/06/11 04:31:55;;;;;;;;;;;17.40;50.40;;;;;;4108692;28;19933;-44
2022/06/11 04:33:57;;;;;;;;;;;17.40;50.40;;;;;;4110804;28;19929;-41
2022/06/11 04:35:59;;;;;;;;;;;17.30;50.30;;;;;;4116110;28;19972;-44
2022/06/11 04:38:01;;;;;;;;;;;17.40;50.20;;;;;;4108149;28;20083;-40
2022/06/11 04:40:05;;;;;;;;;;;17.50;50.20;;;;;;4106790;28;19933;-42
2022/06/11 04:42:06;;;;;;;;;;;17.50;50.10;;;;;;4114317;28;19924;-42
2022/06/11 04:44:08;;;;;;;;;;;17.60;50.10;;;;;;4107003;28;20310;-46
2022/06/11 04:46:10;;;;;;;;;;;17.60;49.90;;;;;;4107821;28;19948;-45
2022/06/11 04:48:12;;;;;;;;;;;17.70;49.80;;;;;;4113209;28;19929;-42
2022/06/11 04:50:16;;;;;;;;;;;17.70;50.00;;;;;;4108875;28;19929;-44
2022/06/11 04:52:17;;;;;;;;;;;17.80;49.60;;;;;;4107002;28;20083;-43
2022/06/11 04:54:19;;;;;;;;;;;17.80;49.50;;;;;;4108862;28;19990;-40
2022/06/11 04:56:23;;;;;;;;;;;17.80;49.40;;;;;;4114606;28;19933;-43
2022/06/11 04:58:25;;;;;;;;;;;17.90;49.40;;;;;;4107279;28;19933;-44
2022/06/11 05:00:28;;;;;;;;;;;17.90;49.30;;;;;;4108380;28;20408;-43
2022/06/11 05:02:30;;;;;;;;;;;17.90;49.20;;;;;;4115958;28;20527;-42
2022/06/11 05:04:31;;;;;;;;;;;17.90;49.10;;;;;;4108723;28;20589;-40
2022/06/11 05:06:37;;;;;;;;;;;18.00;49.10;;;;;;4109727;28;20412;-41
2022/06/11 05:08:38;;;;;;;;;;;18.00;49.10;;;;;;4098187;28;19930;-45
2022/06/11 05:10:41;;;;;;;;;;;18.00;49.00;;;;;;4122405;28;20981;-41
2022/06/11 05:12:43;;;;;;;;;;;18.00;49.10;;;;;;4116285;28;19963;-42
2022/06/11 05:14:44;;;;;;;;;;;18.00;49.20;;;;;;4116970;28;19928;-44
2022/06/11 05:16:46;;;;;;;;;;;18.00;49.10;;;;;;4124872;28;19928;-43
2022/06/11 05:18:48;;;;;;;;;;;18.00;49.10;;;;;;4115638;28;19955;-41
2022/06/11 05:20:50;;;;;;;;;;;18.00;49.10;;;;;;4095861;28;19936;-44
2022/06/11 05:22:52;;;;;;;;;;;18.00;49.10;;;;;;4124921;28;20733;-41
2022/06/11 05:24:53;;;;;;;;;;;17.90;49.10;;;;;;4115661;28;20938;-42
2022/06/11 05:26:57;;;;;;;;;;;17.90;49.00;;;;;;4114281;28;20150;-42
2022/06/11 05:28:59;;;;;;;;;;;17.90;49.00;;;;;;4122369;28;20615;-42
2022/06/11 05:31:00;;;;;;;;;;;17.90;49.10;;;;;;4118681;28;20381;-43
2022/06/11 05:33:02;;;;;;;;;;;17.90;49.00;;;;;;4116064;28;20414;-43
2022/06/11 05:35:06;;;;;;;;;;;17.90;49.00;;;;;;4120552;28;19929;-42
2022/06/11 05:37:08;;;;;;;;;;;17.90;49.00;;;;;;4121415;28;19932;-45
2022/06/11 05:39:09;;;;;;;;;;;17.90;48.90;;;;;;4112918;28;20256;-42
2022/06/11 05:41:11;;;;;;;;;;;17.90;49.00;;;;;;4096305;28;20103;-43
2022/06/11 05:43:13;;;;;;;;;;;17.90;49.00;;;;;;4123397;28;20331;-43
2022/06/11 05:45:15;;;;;;;;;;;17.90;49.10;;;;;;4114778;28;19929;-46
2022/06/11 05:47:19;;;;;;;;;;;17.80;49.00;;;;;;4116996;28;19924;-41
2022/06/11 05:49:22;;;;;;;;;;;17.80;49.00;;;;;;4124171;28;20016;-42
2022/06/11 05:51:26;;;;;;;;;;;17.80;49.10;;;;;;4102311;28;19928;-43
2022/06/11 05:53:29;;;;;;;;;;;17.80;49.10;;;;;;4115468;28;20384;-46
2022/06/11 05:55:32;;;;;;;;;;;17.80;49.00;;;;;;4115757;28;19936;-44
2022/06/11 05:57:34;;;;;;;;;;;17.80;49.00;;;;;;4125302;28;19989;-43
2022/06/11 05:59:38;;;;;;;;;;;17.80;49.00;;;;;;4115525;28;20587;-41
2022/06/11 06:01:41;;;;;;;;;;;17.80;49.10;;;;;;4115972;28;19998;-43
2022/06/11 06:03:43;;;;;;;;;;;17.80;49.00;;;;;;4110973;28;19928;-41
2022/06/11 06:05:44;;;;;;;;;;;17.80;49.00;;;;;;4116887;28;20722;-40
2022/06/11 06:07:46;;;;;;;;;;;17.80;49.10;;;;;;4100205;28;19935;-41
2022/06/11 06:09:48;;;;;;;;;;;17.80;49.00;;;;;;4102476;28;20384;-45
2022/06/11 06:11:49;;;;;;;;;;;17.80;49.20;;;;;;4088901;28;19960;-46
2022/06/11 06:13:51;;;;;;;;;;;17.80;49.40;;;;;;4098225;28;19933;-47
2022/06/11 06:15:53;;;;;;;;;;;17.80;49.20;;;;;;4100125;28;19960;-42
2022/06/11 06:17:54;;;;;;;;;;;17.70;49.30;;;;;;4107706;28;19929;-41
2022/06/11 06:19:56;;;;;;;;;;;17.70;49.30;;;;;;4099228;28;19929;-40
2022/06/11 06:21:58;;;;;;;;;;;17.70;49.30;;;;;;4098982;28;20028;-42
2022/06/11 06:23:59;;;;;;;;;;;17.70;49.20;;;;;;4106493;28;19921;-41
2022/06/11 06:26:01;;;;;;;;;;;17.70;49.10;;;;;;4099047;28;20012;-41
2022/06/11 06:28:03;;;;;;;;;;;17.70;49.10;;;;;;4100246;28;19921;-41
2022/06/11 06:30:05;;;;;;;;;;;17.80;49.30;;;;;;4107274;28;20463;-40
2022/06/11 06:32:07;;;;;;;;;;;18.00;48.70;;;;;;4101307;28;20389;-40
2022/06/11 06:34:09;;;;;;;;;;;18.20;48.40;;;;;;4097649;28;20371;-43
2022/06/11 06:36:11;;;;;;;;;;;18.30;47.80;;;;;;4105861;28;20671;-46
2022/06/11 06:38:12;;;;;;;;;;;18.20;47.80;;;;;;4103580;28;19952;-40
2022/06/11 06:40:14;;;;;;;;;;;18.10;47.90;;;;;;4099822;28;20007;-45
2022/06/11 06:42:16;;;;;;;;;;;18.10;48.10;;;;;;4103153;28;20345;-45
2022/06/11 06:44:18;;;;;;;;;;;18.00;48.40;;;;;;4100888;28;20293;-41
2022/06/11 06:46:19;;;;;;;;;;;17.90;48.50;;;;;;4090731;28;20095;-41
2022/06/11 06:48:21;;;;;;;;;;;17.80;48.60;;;;;;4097467;28;19925;-43
2022/06/11 06:50:23;;;;;;;;;;;17.80;48.80;;;;;;4106831;28;20706;-43
2022/06/11 06:52:24;;;;;;;;;;;17.70;48.80;;;;;;4095878;28;19929;-40
2022/06/11 06:54:26;;;;;;;;;;;17.70;48.90;;;;;;4098527;28;19925;-41
2022/06/11 06:56:33;;;;;;;;;;;17.60;48.90;;;;;;4105162;28;19936;-42
2022/06/11 06:58:35;;;;;;;;;;;17.60;49.20;;;;;;4100695;28;20451;-40
2022/06/11 07:00:36;;;;;;;;;;;17.60;49.00;;;;;;4095524;28;20330;-41
2022/06/11 07:02:38;;;;;;;;;;;17.60;49.10;;;;;;4103616;28;19928;-41
2022/06/11 07:04:40;;;;;;;;;;;17.50;49.10;;;;;;4088423;28;21550;-43
2022/06/11 07:06:42;;;;;;;;;;;17.50;49.20;;;;;;4104028;28;20246;-42
2022/06/11 07:08:44;;;;;;;;;;;17.50;49.20;;;;;;4109897;28;19929;-40
2022/06/11 07:10:54;;;;;;;;;;;17.50;49.20;;;;;;4114433;28;20344;-45
2022/06/11 07:12:56;;;;;;;;;;;17.50;49.40;;;;;;4112937;28;19933;-45
2022/06/11 07:14:58;;;;;;;;;;;17.40;49.30;;;;;;4108272;28;19936;-41
2022/06/11 07:17:02;;;;;;;;;;;17.40;49.40;;;;;;4107520;28;19925;-43
2022/06/11 07:19:09;;;;;;;;;;;17.40;49.40;;;;;;4114857;28;19930;-43
2022/06/11 07:21:16;;;;;;;;;;;17.40;49.40;;;;;;4112174;28;20578;-41
2022/06/11 07:23:21;;;;;;;;;;;17.40;49.50;;;;;;4108141;28;20630;-45
2022/06/11 07:25:23;;;;;;;;;;;17.40;49.50;;;;;;4107610;28;20418;-40
2022/06/11 07:27:28;;;;;;;;;;;17.40;49.50;;;;;;4111009;28;19994;-42
2022/06/11 07:29:31;;;;;;;;;;;17.30;49.40;;;;;;4114669;28;19925;-45
2022/06/11 07:31:33;;;;;;;;;;;17.30;49.40;;;;;;4088764;28;20076;-47
2022/06/11 07:33:35;;;;;;;;;;;17.30;49.50;;;;;;4106841;28;19925;-43
2022/06/11 07:35:37;;;;;;;;;;;17.30;49.50;;;;;;4115297;28;19929;-41
2022/06/11 07:37:39;;;;;;;;;;;17.30;49.50;;;;;;4109363;28;19929;-41
2022/06/11 07:39:41;;;;;;;;;;;17.30;49.60;;;;;;4106739;28;19925;-43
2022/06/11 07:41:43;;;;;;;;;;;17.30;49.60;;;;;;4113888;28;19940;-42
2022/06/11 07:43:44;;;;;;;;;;;17.30;49.60;;;;;;4113359;28;19929;-41
2022/06/11 07:45:46;;;;;;;;;;;17.30;49.60;;;;;;4107276;28;20315;-47
2022/06/11 07:47:54;;;;;;;;;;;17.20;49.60;;;;;;4110563;28;19925;-42
2022/06/11 07:49:55;;;;;;;;;;;17.20;49.70;;;;;;4116740;28;20487;-42
2022/06/11 07:51:57;;;;;;;;;;;17.20;49.60;;;;;;4109506;28;19928;-42
2022/06/11 07:53:58;;;;;;;;;;;17.20;49.60;;;;;;4108823;28;19951;-40
2022/06/11 07:56:00;;;;;;;;;;;17.20;49.60;;;;;;4115818;28;20271;-42
2022/06/11 07:58:02;;;;;;;;;;;17.20;49.70;;;;;;4109125;28;20336;-43
2022/06/11 08:00:05;;;;;;;;;;;17.20;49.70;;;;;;4107747;28;19928;-42
2022/06/11 08:02:06;;;;;;;;;;;17.20;49.70;;;;;;4112344;28;19990;-44
2022/06/11 08:04:08;;;;;;;;;;;17.10;49.80;;;;;;4110527;28;19963;-44
2022/06/11 08:06:09;;;;;;;;;;;17.10;49.80;;;;;;4111728;28;19925;-44
2022/06/11 08:08:12;;;;;;;;;;;17.10;49.70;;;;;;4102292;28;19929;-42
2022/06/11 08:10:14;;;;;;;;;;;17.10;49.80;;;;;;4097766;28;20242;-42
2022/06/11 08:12:15;;;;;;;;;;;17.10;49.80;;;;;;4099370;28;20531;-42
2022/06/11 08:14:17;;;;;;;;;;;17.10;49.80;;;;;;4127119;28;19925;-40
2022/06/11 08:16:18;;;;;;;;;;;17.10;49.80;;;;;;4132172;28;19955;-46
2022/06/11 08:18:21;;;;;;;;;;;17.10;49.80;;;;;;4099647;28;19925;-45
2022/06/11 08:20:24;;;;;;;;;;;17.10;49.80;;;;;;4124589;28;19932;-42
2022/06/11 08:22:26;;;;;;;;;;;17.10;49.90;;;;;;4132187;28;20996;-44
2022/06/11 08:24:27;;;;;;;;;;;17.10;49.90;;;;;;4101928;28;19948;-41
2022/06/11 08:26:29;;;;;;;;;;;17.10;50.00;;;;;;4098418;28;20254;-41
2022/06/11 08:28:31;;;;;;;;;;;17.00;49.90;;;;;;4132497;28;19929;-41
2022/06/11 08:30:33;;;;;;;;;;;17.00;49.90;;;;;;4127119;28;20004;-41
2022/06/11 08:32:35;;;;;;;;;;;17.00;50.00;;;;;;4125244;28;20397;-44
2022/06/11 08:34:41;;;;;;;;;;;17.00;49.90;;;;;;4127610;28;19932;-42
2022/06/11 08:36:43;;;;;;;;;;;17.00;50.00;;;;;;4107740;28;20412;-42
2022/06/11 08:38:45;;;;;;;;;;;17.00;50.00;;;;;;4124387;28;19924;-44
2022/06/11 08:40:48;;;;;;;;;;;17.00;49.90;;;;;;4123886;28;19932;-43
2022/06/11 08:42:57;;;;;;;;;;;17.00;50.00;;;;;;4133318;28;19929;-44
2022/06/11 08:45:02;;;;;;;;;;;17.00;50.00;;;;;;4132889;28;19924;-46
2022/06/11 08:47:07;;;;;;;;;;;17.00;50.10;;;;;;4128136;28;20541;-44
2022/06/11 08:49:13;;;;;;;;;;;17.00;50.10;;;;;;4123474;28;19924;-45
2022/06/11 08:51:21;;;;;;;;;;;16.90;50.00;;;;;;4124702;28;19928;-42
2022/06/11 08:53:23;;;;;;;;;;;17.00;50.10;;;;;;4123847;28;20333;-46
2022/06/11 08:55:29;;;;;;;;;;;16.90;50.10;;;;;;4132442;28;20382;-47
2022/06/11 08:57:56;;;;;;;;;;;16.90;50.00;;;;;;4126966;28;19928;-50
2022/06/11 08:59:58;;;;;;;;;;;16.90;50.10;;;;;;4088628;28;20026;-40
2022/06/11 09:02:05;;;;;;;;;;;16.90;50.30;;;;;;4129860;28;20727;-41
2022/06/11 09:04:14;;;;;;;;;;;16.90;50.10;;;;;;4125325;28;21904;-44
2022/06/11 09:06:34;;;;;;;;;;;16.90;50.10;;;;;;4115956;28;20071;-43
2022/06/11 09:08:35;;;;;;;;;;;16.90;50.10;;;;;;4105560;28;20954;-48
2022/06/11 09:10:40;;;;;;;;;;;16.90;50.20;;;;;;4099792;28;19929;-42
2022/06/11 09:13:00;;;;;;;;;;;16.90;50.20;;;;;;4097566;28;19935;-43
2022/06/11 09:15:01;;;;;;;;;;;16.90;50.80;;;;;;4099980;28;20469;-42
2022/06/11 09:17:29;;;;;;;;;;;16.80;50.20;;;;;;4099421;28;20212;-41
2022/06/11 09:19:34;;;;;;;;;;;16.80;50.20;;;;;;4098283;28;20345;-43
2022/06/11 09:21:54;;;;;;;;;;;16.80;50.00;;;;;;4097518;28;20322;-42
2022/06/11 09:24:07;;;;;;;;;;;16.80;50.10;;;;;;4100921;28;21747;-40
2022/06/11 09:26:31;;;;;;;;;;;16.80;50.20;;;;;;4101210;28;20252;-42
2022/06/11 09:28:47;;;;;;;;;;;16.80;50.20;;;;;;4106492;28;19933;-41
2022/06/11 09:30:57;;;;;;;;;;;16.80;50.10;;;;;;4100247;28;19991;-43
2022/06/11 09:33:01;;;;;;;;;;;16.80;50.20;;;;;;4101754;28;19929;-41
2022/06/11 09:35:08;;;;;;;;;;;16.80;50.30;;;;;;4103172;28;19987;-39
2022/06/11 09:37:45;;;;;;;;;;;16.80;50.30;;;;;;4099926;28;20934;-44
2022/06/11 09:39:47;;;;;;;;;;;16.80;50.30;;;;;;4075187;28;19949;-43
2022/06/11 09:42:02;;;;;;;;;;;16.80;50.30;;;;;;4090427;28;19937;-43
2022/06/11 09:44:18;;;;;;;;;;;16.70;50.30;;;;;;4098151;28;19940;-44
2022/06/11 09:46:19;;;;;;;;;;;16.70;50.20;;;;;;4096147;28;19929;-41
2022/06/11 09:48:28;;;;;;;;;;;16.70;50.30;;;;;;4104499;28;19980;-45
2022/06/11 09:50:34;;;;;;;;;;;16.70;50.30;;;;;;4104650;28;19932;-42
2022/06/11 09:52:58;;;;;;;;;;;16.70;50.20;;;;;;4100362;28;20067;-46
2022/06/11 09:55:18;;;;;;;;;;;16.70;50.20;;;;;;4102227;28;19960;-42
2022/06/11 09:57:28;;;;;;;;;;;16.70;50.30;;;;;;4096429;28;19991;-47
2022/06/11 09:59:33;;;;;;;;;;;16.70;50.90;;;;;;4098018;28;19945;-45
2022/06/11 10:01:56;;;;;;;;;;;16.70;50.30;;;;;;4101758;28;19999;-45
2022/06/11 10:04:10;;;;;;;;;;;16.70;50.20;;;;;;4093720;28;19936;-42
2022/06/11 10:06:35;;;;;;;;;;;16.60;50.30;;;;;;4096412;28;20679;-43
2022/06/11 10:08:49;;;;;;;;;;;16.60;50.30;;;;;;4101935;28;19968;-41
2022/06/11 10:10:51;;;;;;;;;;;16.60;50.30;;;;;;4102437;28;19939;-44
2022/06/11 10:12:56;;;;;;;;;;;16.60;50.20;;;;;;4095967;28;19967;-43
2022/06/11 10:15:14;;;;;;;;;;;16.60;50.30;;;;;;4094330;28;19925;-44
2022/06/11 10:17:28;;;;;;;;;;;16.60;50.30;;;;;;4094328;28;19925;-43
2022/06/11 10:19:38;;;;;;;;;;;16.60;50.30;;;;;;4095650;28;19925;-43
2022/06/11 10:21:51;;;;;;;;;;;16.60;50.20;;;;;;4094639;28;19929;-44
2022/06/11 10:23:57;;;;;;;;;;;16.60;50.30;;;;;;4094737;28;19937;-40
2022/06/11 10:25:59;;;;;;;;;;;16.60;50.20;;;;;;4095384;28;20823;-42
2022/06/11 10:28:03;;;;;;;;;;;16.50;50.10;;;;;;4102269;28;19929;-44
2022/06/11 10:30:14;;;;;;;;;;;16.50;50.30;;;;;;4100952;28;20523;-41
2022/06/11 10:32:20;;;;;;;;;;;16.50;50.30;;;;;;4102590;28;20952;-42
2022/06/11 10:34:23;;;;;;;;;;;16.50;50.30;;;;;;4096682;28;20737;-41
2022/06/11 10:36:31;;;;;;;;;;;16.50;50.30;;;;;;4094193;28;20200;-44
2022/06/11 10:38:35;;;;;;;;;;;16.50;50.30;;;;;;4102993;28;20016;-43
2022/06/11 10:40:40;;;;;;;;;;;16.50;50.40;;;;;;4110281;28;19925;-41
2022/06/11 10:42:44;;;;;;;;;;;16.50;50.30;;;;;;4103824;28;21541;-46
2022/06/11 10:44:48;;;;;;;;;;;16.50;50.30;;;;;;4100343;28;19929;-45
2022/06/11 10:46:52;;;;;;;;;;;16.40;50.30;;;;;;4103247;28;20380;-40
2022/06/11 10:48:53;;;;;;;;;;;16.40;50.30;;;;;;4109093;28;20559;-43
2022/06/11 10:50:56;;;;;;;;;;;16.40;50.40;;;;;;4102318;28;20072;-40
2022/06/11 10:53:02;;;;;;;;;;;16.40;51.00;;;;;;4102306;28;19932;-43
2022/06/11 10:55:05;;;;;;;;;;;16.40;50.30;;;;;;4103670;28;19932;-41
2022/06/11 10:57:21;;;;;;;;;;;16.40;50.20;;;;;;4110201;28;20014;-40
2022/06/11 10:59:25;;;;;;;;;;;16.40;50.20;;;;;;4109040;28;19986;-39
2022/06/11 11:01:28;;;;;;;;;;;16.40;50.20;;;;;;4106747;28;21216;-40
2022/06/11 11:03:42;;;;;;;;;;;16.30;50.10;;;;;;4101607;28;19978;-41
2022/06/11 11:05:46;;;;;;;;;;;16.30;50.10;;;;;;4102715;28;19948;-48
2022/06/11 11:07:50;;;;;;;;;;;16.30;50.10;;;;;;4108792;28;19959;-42
2022/06/11 11:09:58;;;;;;;;;;;16.30;50.10;;;;;;4114322;28;19929;-41
2022/06/11 11:12:02;;;;;;;;;;;16.30;50.10;;;;;;4116127;28;20545;-44
2022/06/11 11:14:08;;;;;;;;;;;16.30;50.20;;;;;;4108928;28;20837;-41
2022/06/11 11:16:13;;;;;;;;;;;16.20;50.10;;;;;;4109820;28;19928;-44
2022/06/11 11:18:19;;;;;;;;;;;16.20;50.30;;;;;;4090450;28;19999;-40
2022/06/11 11:20:30;;;;;;;;;;;16.20;50.20;;;;;;4114199;28;19920;-43
2022/06/11 11:22:32;;;;;;;;;;;16.20;50.30;;;;;;4114583;28;19947;-41
2022/06/11 11:24:41;;;;;;;;;;;16.20;50.10;;;;;;4113888;28;20622;-40
2022/06/11 11:26:48;;;;;;;;;;;16.10;50.30;;;;;;4109956;28;20555;-42
2022/06/11 11:29:08;;;;;;;;;;;16.10;50.40;;;;;;4090486;28;19975;-42
2022/06/11 11:31:17;;;;;;;;;;;16.10;50.40;;;;;;4112265;28;19945;-42
2022/06/11 11:33:26;;;;;;;;;;;16.10;50.40;;;;;;4108649;28;21340;-42
2022/06/11 11:35:37;;;;;;;;;;;16.10;50.30;;;;;;4109273;28;20309;-41
2022/06/11 11:37:39;;;;;;;;;;;16.10;50.40;;;;;;4109810;28;20656;-40
2022/06/11 11:39:51;;;;;;;;;;;16.10;50.40;;;;;;4110684;28;19929;-41
2022/06/11 11:41:53;;;;;;;;;;;16.00;50.30;;;;;;4109751;28;19929;-40
2022/06/11 11:43:57;;;;;;;;;;;16.00;50.40;;;;;;4115906;28;19940;-42
2022/06/11 11:46:00;;;;;;;;;;;16.00;50.30;;;;;;4108925;28;19940;-41
2022/06/11 11:48:04;;;;;;;;;;;16.00;50.40;;;;;;4106806;28;20421;-42
2022/06/11 11:50:17;;;;;;;;;;;16.00;50.50;;;;;;4113668;28;19929;-41
2022/06/11 11:52:20;;;;;;;;;;;16.00;50.50;;;;;;4112355;28;20023;-43
2022/06/11 11:54:23;;;;;;;;;;;15.90;50.50;;;;;;4115788;28;20024;-40
2022/06/11 11:56:30;;;;;;;;;;;15.90;50.40;;;;;;4108289;28;19955;-42
2022/06/11 11:58:40;;;;;;;;;;;15.90;50.40;;;;;;4109005;28;19940;-40
2022/06/11 12:00:49;;;;;;;;;;;15.90;50.40;;;;;;4106764;28;20150;-42
2022/06/11 12:02:53;;;;;;;;;;;15.90;50.40;;;;;;4108235;28;19937;-41
2022/06/11 12:05:00;;;;;;;;;;;15.90;50.30;;;;;;4116708;28;19929;-43
2022/06/11 12:07:07;;;;;;;;;;;15.90;50.50;;;;;;4109669;28;20321;-44
2022/06/11 12:09:18;;;;;;;;;;;15.90;50.50;;;;;;4082759;28;19941;-44